Time;durP1;ratioP1;P1;durP2;ratioP2;P2;SDS_P1;SDS_P2;PMS_P1;PMS_P2;Temp;Humidity;BMP_temperature;BMP_pressure;BME280_temperature;BME280_humidity;BME280_pressure;Samples;Min_cycle;Max_cycle;Signal;HPM_P1;HPM_P2
2021/08/12 00:00:31;;;;;;;8.53;5.37;;;;;;;16.36;79.98;97034.34;2594722;47;20997;-75
2021/08/12 00:03:02;;;;;;;10.73;5.90;;;;;;;16.38;80.03;97029.75;2596185;31;20969;-78
2021/08/12 00:05:32;;;;;;;10.27;5.77;;;;;;;16.40;79.29;97033.09;2595051;39;20485;-76
2021/08/12 00:08:02;;;;;;;17.63;5.60;;;;;;;16.34;79.68;97032.81;2595606;36;20533;-76
2021/08/12 00:10:33;;;;;;;11.27;5.67;;;;;;;16.30;79.54;97032.22;2596644;39;20776;-76
2021/08/12 00:13:03;;;;;;;8.20;5.57;;;;;;;16.32;79.47;97035.56;2595655;36;20473;-75
2021/08/12 00:15:33;;;;;;;13.53;6.63;;;;;;;16.30;79.79;97034.88;2596155;47;21053;-77
2021/08/12 00:18:04;;;;;;;9.83;6.43;;;;;;;16.19;79.54;97040.22;2596003;36;20462;-77
2021/08/12 00:20:38;;;;;;;11.73;5.60;;;;;;;16.07;80.59;97041.25;2596062;54;21477;-76
2021/08/12 00:23:08;;;;;;;10.77;6.77;;;;;;;16.00;80.64;97038.31;2596193;36;20589;-76
2021/08/12 00:25:38;;;;;;;9.70;5.70;;;;;;;15.86;80.71;97028.91;2595935;54;20914;-75
2021/08/12 00:28:08;;;;;;;9.17;5.33;;;;;;;16.02;80.64;97029.28;2596525;36;20855;-76
2021/08/12 00:30:38;;;;;;;14.10;5.80;;;;;;;16.08;80.50;97022.66;2595486;54;20410;-75
2021/08/12 00:33:10;;;;;;;11.50;5.60;;;;;;;16.09;80.11;97029.63;2595395;36;20919;-75
2021/08/12 00:35:40;;;;;;;10.43;5.73;;;;;;;16.09;79.65;97024.34;2595172;39;20778;-75
2021/08/12 00:38:10;;;;;;;7.73;5.33;;;;;;;16.04;79.85;97021.22;2595996;36;20423;-75
2021/08/12 00:40:42;;;;;;;10.40;5.80;;;;;;;15.95;80.57;97004.34;2595890;54;20868;-75
2021/08/12 00:43:13;;;;;;;8.07;5.00;;;;;;;15.98;80.64;97014.66;2596231;36;20447;-75
2021/08/12 00:45:43;;;;;;;8.37;5.73;;;;;;;15.96;80.46;97023.69;2594999;36;20754;-75
2021/08/12 00:48:14;;;;;;;15.17;6.13;;;;;;;15.94;81.12;97018.53;2594793;54;20422;-75
2021/08/12 00:50:46;;;;;;;14.90;5.80;;;;;;;15.96;81.22;97021.88;2595943;36;20391;-75
2021/08/12 00:53:16;;;;;;;9.33;5.50;;;;;;;15.91;80.75;97016.13;2595908;54;20439;-75
2021/08/12 00:55:48;;;;;;;9.33;5.80;;;;;;;15.88;80.73;97018.22;2595529;36;21032;-75
2021/08/12 00:58:19;;;;;;;11.47;5.70;;;;;;;15.93;81.14;97024.75;2595316;39;21165;-76
2021/08/12 01:00:49;;;;;;;10.70;5.90;;;;;;;15.91;80.88;97021.41;2596274;36;20605;-74
2021/08/12 01:03:21;;;;;;;8.50;5.83;;;;;;;15.85;80.90;97016.66;2595948;54;20415;-76
2021/08/12 01:05:53;;;;;;;10.40;5.80;;;;;;;15.89;81.27;97030.44;2595394;36;20775;-76
2021/08/12 01:08:36;;;;;;;10.40;5.80;;;;;;;15.79;81.46;97030.38;2595789;39;20888;-77
2021/08/12 01:11:13;;;;;;;9.67;5.57;;;;;;;15.75;80.97;97015.75;2595322;36;20423;-77
2021/08/12 01:14:07;;;;;;;8.57;5.50;;;;;;;15.76;81.75;97028.81;2596159;54;20465;-75
2021/08/12 01:16:42;;;;;;;17.60;6.20;;;;;;;15.73;81.90;97030.88;2596653;31;20934;-77
2021/08/12 01:19:41;;;;;;;16.53;6.47;;;;;;;15.73;81.73;97033.50;2596069;54;20418;-75
2021/08/12 01:22:14;;;;;;;15.93;6.67;;;;;;;15.68;81.84;97018.03;2598019;36;20577;-75
2021/08/12 01:24:48;;;;;;;12.20;5.80;;;;;;;15.76;81.84;97025.34;2596320;54;20993;-74
2021/08/12 01:27:20;;;;;;;11.10;5.87;;;;;;;15.74;81.40;97021.97;2597650;36;20773;-76
2021/08/12 01:30:00;;;;;;;9.00;5.20;;;;;;;15.73;81.82;97029.06;2595472;47;20419;-75
2021/08/12 01:32:34;;;;;;;9.47;5.50;;;;;;;15.63;82.47;97025.47;2596920;36;20746;-75
2021/08/12 01:35:09;;;;;;;9.87;5.27;;;;;;;15.66;81.75;97029.66;2595788;39;20743;-76
2021/08/12 01:37:42;;;;;;;14.97;5.90;;;;;;;15.60;82.02;97023.94;2596058;36;20825;-74
2021/08/12 01:40:17;;;;;;;10.00;5.57;;;;;;;15.46;81.88;97016.31;2595483;54;20387;-75
2021/08/12 01:42:48;;;;;;;10.83;5.33;;;;;;;15.39;82.29;97012.50;2596921;36;20446;-77
2021/08/12 01:45:19;;;;;;;8.10;5.07;;;;;;;15.48;82.24;97013.53;2596467;39;20775;-76
2021/08/12 01:47:51;;;;;;;8.57;5.60;;;;;;;15.47;82.60;97023.28;2596447;36;20442;-74
2021/08/12 01:50:24;;;;;;;9.20;4.73;;;;;;;15.21;83.09;97020.97;2595346;54;20972;-74
2021/08/12 01:52:56;;;;;;;9.90;5.87;;;;;;;15.27;82.07;97017.00;2595528;36;21285;-76
2021/08/12 01:55:31;;;;;;;13.80;5.60;;;;;;;15.41;82.18;97024.59;2595006;54;20522;-74
2021/08/12 01:58:02;;;;;;;6.93;4.80;;;;;;;15.34;82.26;97017.31;2596198;36;20449;-76
2021/08/12 02:00:33;;;;;;;12.00;5.87;;;;;;;15.34;82.22;97022.59;2594850;54;20415;-76
2021/08/12 02:03:07;;;;;;;7.80;4.90;;;;;;;15.32;82.10;97020.06;2595821;31;20450;-78
2021/08/12 02:05:41;;;;;;;10.77;5.23;;;;;;;15.23;80.81;97019.03;2594717;54;21323;-76
2021/08/12 02:08:11;;;;;;;10.90;5.07;;;;;;;15.15;81.74;97013.53;2593672;36;20889;-76
2021/08/12 02:10:42;;;;;;;11.77;5.10;;;;;;;15.30;81.26;97010.63;2594599;54;20981;-77
2021/08/12 02:13:13;;;;;;;9.03;5.40;;;;;;;15.19;81.55;97007.06;2593502;36;20414;-77
2021/08/12 02:15:44;;;;;;;9.57;5.27;;;;;;;15.15;82.26;97008.28;2593561;39;20806;-77
2021/08/12 02:18:14;;;;;;;8.07;5.03;;;;;;;15.10;82.59;97012.22;2559896;54;2004032;-78
2021/08/12 02:20:50;;;;;;;11.97;5.57;;;;;;;15.03;82.81;96994.28;2595693;36;21059;-75
2021/08/12 02:23:26;;;;;;;9.77;5.73;;;;;;;15.03;82.95;97007.47;2597073;54;20537;-76
2021/08/12 02:26:00;;;;;;;12.73;5.67;;;;;;;14.91;84.09;97004.94;2596648;36;20818;-76
2021/08/12 02:28:32;;;;;;;8.37;5.20;;;;;;;15.01;83.45;97005.88;2598097;39;20762;-77
2021/08/12 02:31:06;;;;;;;10.77;5.80;;;;;;;14.99;82.71;97003.41;2597813;31;21024;-76
2021/08/12 02:33:39;;;;;;;14.50;5.50;;;;;;;15.05;82.81;97007.31;2598414;54;20379;-76
2021/08/12 02:36:11;;;;;;;8.20;5.30;;;;;;;14.96;82.98;97003.63;2597113;31;20538;-77
2021/08/12 02:38:44;;;;;;;10.63;5.47;;;;;;;14.87;82.81;96998.25;2596977;39;20767;-78
2021/08/12 02:41:17;;;;;;;8.73;4.87;;;;;;;14.95;82.55;96995.84;2597534;36;20789;-75
2021/08/12 02:43:48;;;;;;;14.33;5.70;;;;;;;14.91;81.84;96999.69;2596054;54;20469;-77
2021/08/12 02:46:21;;;;;;;13.27;5.57;;;;;;;14.91;82.35;96997.03;2596370;36;20465;-77
2021/08/12 02:48:53;;;;;;;13.53;5.60;;;;;;;14.94;82.11;96995.00;2595408;54;20539;-76
2021/08/12 02:51:26;;;;;;;13.63;6.80;;;;;;;14.99;82.01;96994.63;2596883;36;20759;-77
2021/08/12 02:53:58;;;;;;;10.23;5.20;;;;;;;14.99;82.06;96995.47;2595731;39;20756;-76
2021/08/12 02:56:28;;;;;;;15.63;5.97;;;;;;;14.92;81.79;96986.38;2593847;31;20419;-80
2021/08/12 02:58:58;;;;;;;8.00;4.90;;;;;;;14.95;82.68;96995.84;2593774;47;20423;-80
2021/08/12 03:01:29;;;;;;;9.80;6.23;;;;;;;14.85;82.58;96994.91;2594446;36;20951;-77
2021/08/12 03:04:01;;;;;;;11.80;6.13;;;;;;;14.73;83.25;97001.97;2593632;54;21108;-78
2021/08/12 03:06:33;;;;;;;14.40;4.67;;;;;;;14.49;83.34;96995.03;2594772;36;20803;-78
2021/08/12 03:09:03;;;;;;;14.53;5.77;;;;;;;14.32;84.13;96993.69;2596234;39;20734;-78
2021/08/12 03:11:39;;;;;;;13.00;5.07;;;;;;;14.47;83.38;96990.84;2609766;31;20430;-77
2021/08/12 03:14:13;;;;;;;8.50;5.10;;;;;;;14.60;82.71;96991.56;2604972;39;20798;-76
2021/08/12 03:16:54;;;;;;;9.17;5.90;;;;;;;14.66;82.52;96985.78;2603369;36;20921;-79
2021/08/12 03:19:25;;;;;;;13.37;5.03;;;;;;;14.67;82.17;96981.38;2595317;47;20914;-78
2021/08/12 03:22:05;;;;;;;8.30;5.07;;;;;;;14.55;81.80;96970.81;2595921;36;20437;-78
2021/08/12 03:24:37;;;;;;;12.03;5.40;;;;;;;14.58;81.88;96978.53;2594748;54;21304;-78
2021/08/12 03:27:11;;;;;;;11.57;5.40;;;;;;;14.56;82.18;96980.44;2595774;36;20922;-76
2021/08/12 03:29:42;;;;;;;7.90;4.77;;;;;;;14.60;82.75;96983.66;2595991;54;20418;-76
2021/08/12 03:32:12;;;;;;;9.33;5.00;;;;;;;14.60;82.63;96986.28;2595019;36;20874;-77
2021/08/12 03:34:42;;;;;;;9.50;6.03;;;;;;;14.48;83.78;96984.59;2594788;54;21237;-75
2021/08/12 03:37:14;;;;;;;13.03;5.50;;;;;;;14.42;83.53;96993.81;2594892;36;20505;-76
2021/08/12 03:39:44;;;;;;;11.67;5.80;;;;;;;14.37;83.22;96999.44;2594521;54;20446;-75
2021/08/12 03:42:14;;;;;;;13.47;5.67;;;;;;;14.35;83.89;97000.53;2593898;36;20561;-75
2021/08/12 03:44:44;;;;;;;12.00;5.27;;;;;;;14.42;83.46;96999.91;2594023;54;20981;-76
2021/08/12 03:47:14;;;;;;;10.37;5.50;;;;;;;14.55;82.53;96997.16;2594411;36;20894;-76
2021/08/12 03:49:44;;;;;;;11.60;6.00;;;;;;;14.61;82.50;96998.53;2595685;54;20958;-76
2021/08/12 03:52:16;;;;;;;9.80;5.80;;;;;;;14.59;82.23;96982.81;2596606;36;20773;-75
2021/08/12 03:54:46;;;;;;;10.13;5.27;;;;;;;14.71;82.00;96993.34;2595842;54;20940;-77
2021/08/12 03:57:16;;;;;;;8.17;5.70;;;;;;;14.69;81.71;96995.28;2595084;36;20498;-76
2021/08/12 03:59:46;;;;;;;8.10;5.17;;;;;;;14.64;81.84;96995.63;2596045;54;20415;-74
2021/08/12 04:02:16;;;;;;;14.20;6.03;;;;;;;14.68;81.96;96993.59;2595776;36;20901;-76
2021/08/12 04:04:46;;;;;;;8.77;5.00;;;;;;;14.63;82.45;96999.22;2596061;54;20442;-76
2021/08/12 04:07:17;;;;;;;10.87;6.03;;;;;;;14.63;82.63;96996.59;2595395;36;20980;-78
2021/08/12 04:09:47;;;;;;;11.87;5.13;;;;;;;14.63;82.70;97007.97;2595450;54;20460;-79
2021/08/12 04:12:17;;;;;;;9.30;5.43;;;;;;;14.47;82.95;97006.66;2595199;36;20427;-76
2021/08/12 04:14:47;;;;;;;7.60;5.53;;;;;;;14.59;82.69;97006.53;2595709;39;20759;-77
2021/08/12 04:17:17;;;;;;;16.43;5.37;;;;;;;14.67;81.68;96998.03;2596177;36;21064;-76
2021/08/12 04:19:47;;;;;;;8.53;5.00;;;;;;;14.57;81.91;96997.91;2596965;54;21001;-75
2021/08/12 04:22:19;;;;;;;10.83;6.17;;;;;;;14.57;82.19;96992.66;2615542;36;20981;-75
2021/08/12 04:24:52;;;;;;;11.33;5.87;;;;;;;14.54;82.33;96994.66;2596360;54;20462;-75
2021/08/12 04:27:22;;;;;;;9.90;5.70;;;;;;;14.54;82.37;96992.84;2595325;36;20457;-74
2021/08/12 04:29:52;;;;;;;8.00;5.97;;;;;;;14.74;81.96;96987.81;2594437;47;20414;-74
2021/08/12 04:32:22;;;;;;;11.73;5.20;;;;;;;14.76;81.70;96984.13;2594258;36;20418;-75
2021/08/12 04:34:52;;;;;;;12.00;5.73;;;;;;;14.73;81.95;96975.63;2594854;54;20946;-76
2021/08/12 04:37:24;;;;;;;7.87;5.77;;;;;;;14.73;82.25;96984.38;2597006;36;21303;-76
2021/08/12 04:39:53;;;;;;;9.87;6.00;;;;;;;14.79;81.90;96983.88;2598537;54;20419;-76
2021/08/12 04:42:23;;;;;;;12.33;5.23;;;;;;;14.80;82.81;96993.47;2595432;36;20478;-76
2021/08/12 04:44:53;;;;;;;15.10;6.40;;;;;;;15.04;81.96;96984.56;2595296;54;20426;-76
2021/08/12 04:47:23;;;;;;;10.87;5.30;;;;;;;15.15;81.89;96991.56;2596203;31;20851;-75
2021/08/12 04:49:53;;;;;;;11.80;5.77;;;;;;;14.88;82.78;96986.72;2596444;54;20514;-75
2021/08/12 04:52:24;;;;;;;13.70;5.90;;;;;;;14.56;83.54;96995.38;2595266;36;20449;-74
2021/08/12 04:54:54;;;;;;;11.70;5.20;;;;;;;14.80;81.71;96990.84;2596417;54;20415;-74
2021/08/12 04:57:24;;;;;;;11.50;5.57;;;;;;;14.95;80.91;96996.66;2596011;36;20430;-75
2021/08/12 04:59:54;;;;;;;20.87;6.17;;;;;;;14.77;81.20;96996.34;2596176;54;20415;-74
2021/08/12 05:02:24;;;;;;;19.53;6.63;;;;;;;14.73;82.26;96992.28;2595796;36;20773;-74
2021/08/12 05:04:54;;;;;;;9.30;5.57;;;;;;;14.40;84.14;97001.81;2596709;54;21059;-74
2021/08/12 05:07:26;;;;;;;8.60;5.30;;;;;;;14.70;82.13;96997.81;2596251;31;21097;-75
2021/08/12 05:09:58;;;;;;;8.60;4.60;;;;;;;14.79;81.13;96996.22;2597775;54;20383;-73
2021/08/12 05:12:28;;;;;;;19.30;6.53;;;;;;;14.57;81.63;96994.44;2596592;36;20434;-72
2021/08/12 05:15:00;;;;;;;7.90;4.57;;;;;;;14.55;82.50;97001.59;2596181;39;20757;-72
2021/08/12 05:17:30;;;;;;;10.83;5.20;;;;;;;14.71;82.37;97003.91;2596832;31;20415;-73
2021/08/12 05:20:00;;;;;;;12.20;6.63;;;;;;;15.05;80.47;97004.66;2596384;39;21276;-73
2021/08/12 05:22:31;;;;;;;15.03;9.47;;;;;;;15.27;79.60;97006.44;2595513;36;20426;-74
2021/08/12 05:25:01;;;;;;;16.83;7.60;;;;;;;14.89;80.53;97001.59;2596313;54;21151;-76
2021/08/12 05:27:31;;;;;;;10.90;5.93;;;;;;;14.80;81.35;96997.91;2596394;31;20447;-73
2021/08/12 05:30:01;;;;;;;8.20;5.47;;;;;;;15.07;80.62;97002.75;2597619;54;20383;-73
2021/08/12 05:32:31;;;;;;;13.10;6.10;;;;;;;15.40;79.82;97015.00;2596582;36;20414;-74
2021/08/12 05:35:01;;;;;;;10.20;5.43;;;;;;;15.71;78.69;97007.19;2595740;54;20445;-73
2021/08/12 05:37:32;;;;;;;11.13;6.20;;;;;;;15.60;79.88;97016.03;2595585;36;20447;-74
2021/08/12 05:40:02;;;;;;;11.60;6.27;;;;;;;15.70;79.65;97025.81;2596133;54;20950;-74
2021/08/12 05:42:32;;;;;;;10.30;5.50;;;;;;;15.92;79.72;97023.09;2595127;36;20445;-75
2021/08/12 05:45:02;;;;;;;15.70;6.30;;;;;;;15.99;79.00;97013.69;2595604;39;20786;-74
2021/08/12 05:47:31;;;;;;;10.43;6.03;;;;;;;16.07;78.96;97022.75;2595305;36;20615;-75
2021/08/12 05:50:01;;;;;;;16.73;6.57;;;;;;;15.82;79.09;97027.47;2596268;54;20974;-74
2021/08/12 05:52:33;;;;;;;11.33;5.47;;;;;;;15.85;79.40;97015.81;2595670;36;20470;-74
2021/08/12 05:55:03;;;;;;;10.13;6.37;;;;;;;15.53;80.42;97022.75;2594908;39;20784;-75
2021/08/12 05:57:33;;;;;;;12.00;5.50;;;;;;;15.61;80.58;97025.59;2594645;36;20423;-74
2021/08/12 06:00:03;;;;;;;11.03;5.80;;;;;;;15.66;81.10;97017.31;2594727;39;20824;-74
2021/08/12 06:02:33;;;;;;;12.40;6.10;;;;;;;16.30;79.20;97005.78;2595194;31;20414;-75
2021/08/12 06:05:03;;;;;;;8.47;6.00;;;;;;;16.37;78.76;97003.47;2594309;54;20441;-74
2021/08/12 06:07:34;;;;;;;10.93;5.60;;;;;;;16.94;77.34;97014.44;2594679;36;20824;-74
2021/08/12 06:10:05;;;;;;;10.90;5.47;;;;;;;17.08;78.27;97005.28;2595702;54;20434;-75
2021/08/12 06:12:35;;;;;;;11.77;6.13;;;;;;;17.19;79.19;97006.00;2595289;36;20512;-75
2021/08/12 06:15:06;;;;;;;6.00;4.77;;;;;;;17.53;78.72;97000.31;2595522;31;20849;-75
2021/08/12 06:17:38;;;;;;;12.73;5.40;;;;;;;17.93;77.54;96990.56;2595407;36;20415;-76
2021/08/12 06:20:10;;;;;;;8.87;4.67;;;;;;;18.18;78.06;96997.06;2595498;54;20992;-76
2021/08/12 06:22:41;;;;;;;11.83;4.83;;;;;;;18.59;75.96;96997.63;2595885;36;20956;-75
2021/08/12 06:25:13;;;;;;;16.00;6.50;;;;;;;18.64;74.84;97000.69;2594420;47;20450;-75
2021/08/12 06:27:43;;;;;;;14.23;5.97;;;;;;;18.85;74.00;96987.19;2595310;36;20423;-75
2021/08/12 06:30:14;;;;;;;14.03;6.33;;;;;;;19.18;71.47;97000.84;2595756;54;20410;-76
2021/08/12 06:32:44;;;;;;;7.33;5.50;;;;;;;18.93;71.96;96991.78;2596979;36;20557;-76
2021/08/12 06:35:14;;;;;;;14.93;6.20;;;;;;;19.03;71.81;96995.19;2595480;54;20415;-75
2021/08/12 06:37:46;;;;;;;11.17;5.17;;;;;;;18.91;71.53;97001.69;2595584;36;20517;-75
2021/08/12 06:40:17;;;;;;;17.83;5.50;;;;;;;19.28;70.31;96998.97;2595064;54;20410;-75
2021/08/12 06:42:48;;;;;;;16.53;6.83;;;;;;;19.40;69.77;96998.75;2594888;36;20474;-76
2021/08/12 06:45:20;;;;;;;11.30;6.80;;;;;;;19.00;71.36;96990.19;2595630;54;20461;-75
2021/08/12 06:47:50;;;;;;;10.70;5.63;;;;;;;19.03;72.17;97011.13;2595987;36;20419;-75
2021/08/12 06:50:23;;;;;;;14.10;7.07;;;;;;;18.73;72.93;97020.19;2595696;54;20433;-75
2021/08/12 06:52:54;;;;;;;15.93;6.50;;;;;;;18.58;73.64;97015.38;2595497;36;20469;-75
2021/08/12 06:55:25;;;;;;;16.60;6.00;;;;;;;18.72;72.77;97013.22;2595396;54;20465;-75
2021/08/12 06:57:54;;;;;;;16.87;7.30;;;;;;;19.03;72.25;97020.91;2595762;36;20411;-75
2021/08/12 07:00:24;;;;;;;11.90;7.53;;;;;;;19.38;72.29;97025.44;2595839;54;20445;-75
2021/08/12 07:02:54;;;;;;;16.50;6.83;;;;;;;19.05;73.15;97021.59;2595534;36;20426;-74
2021/08/12 07:05:25;;;;;;;13.17;7.00;;;;;;;19.54;73.16;97030.94;2595653;39;20793;-75
2021/08/12 07:07:56;;;;;;;15.47;6.63;;;;;;;20.24;70.82;97019.56;2593775;36;20426;-75
2021/08/12 07:10:26;;;;;;;11.97;6.33;;;;;;;19.54;73.70;97016.78;2594382;47;20929;-75
2021/08/12 07:12:56;;;;;;;13.53;6.43;;;;;;;20.84;68.75;97009.97;2594965;36;20772;-76
2021/08/12 07:15:26;;;;;;;12.47;6.33;;;;;;;21.39;67.05;97008.66;2595846;39;20781;-75
2021/08/12 07:17:56;;;;;;;16.20;6.33;;;;;;;22.04;65.09;97015.88;2594968;36;20477;-76
2021/08/12 07:20:26;;;;;;;14.83;6.50;;;;;;;22.33;64.28;97011.91;2599542;54;20449;-75
2021/08/12 07:22:57;;;;;;;15.40;7.20;;;;;;;22.24;64.99;97009.22;2598249;36;21045;-75
2021/08/12 07:25:27;;;;;;;8.60;6.10;;;;;;;22.58;63.77;97008.16;2596093;54;20977;-75
2021/08/12 07:27:57;;;;;;;7.63;5.37;;;;;;;23.47;59.68;97014.13;2596020;36;20942;-75
2021/08/12 07:30:29;;;;;;;20.23;5.77;;;;;;;22.56;61.73;97004.84;2598840;54;20502;-75
2021/08/12 07:32:59;;;;;;;18.73;6.27;;;;;;;23.25;61.13;97006.91;2598453;36;21229;-74
2021/08/12 07:35:29;;;;;;;7.07;5.30;;;;;;;24.17;56.42;97000.75;2599011;54;20415;-74
2021/08/12 07:38:00;;;;;;;7.30;4.63;;;;;;;24.65;53.82;96998.63;2599357;36;20434;-75
2021/08/12 07:40:30;;;;;;;8.20;4.63;;;;;;;24.69;55.92;96999.91;2598493;54;20390;-75
2021/08/12 07:42:59;;;;;;;8.30;5.00;;;;;;;24.70;56.19;96998.06;2599438;31;20451;-75
2021/08/12 07:45:29;;;;;;;18.30;13.40;;;;;;;24.73;55.90;96997.69;2598443;54;20387;-75
2021/08/12 07:48:02;;;;;;;8.40;4.83;;;;;;;25.00;53.92;96999.72;2598031;36;20848;-75
2021/08/12 07:50:32;;;;;;;8.90;5.40;;;;;;;24.77;54.55;96996.31;2596613;47;20969;-75
2021/08/12 07:53:04;;;;;;;7.83;4.53;;;;;;;24.85;54.43;96999.75;2597821;31;20430;-75
2021/08/12 07:55:34;;;;;;;12.20;5.30;;;;;;;24.69;53.21;96996.41;2596467;39;21081;-76
2021/08/12 07:58:04;;;;;;;9.43;5.23;;;;;;;24.91;53.84;96991.97;2595778;36;20968;-76
2021/08/12 08:00:35;;;;;;;8.70;5.00;;;;;;;24.19;54.79;96993.41;2594721;54;20469;-76
2021/08/12 08:03:05;;;;;;;6.37;4.40;;;;;;;24.26;54.72;97005.84;2595956;36;20764;-75
2021/08/12 08:05:36;;;;;;;9.00;4.97;;;;;;;24.35;53.93;97001.25;2596497;54;20914;-76
2021/08/12 08:08:08;;;;;;;8.50;5.10;;;;;;;24.41;53.47;96997.84;2596023;36;20457;-76
2021/08/12 08:10:38;;;;;;;5.80;4.30;;;;;;;24.39;53.32;97001.72;2596350;54;20974;-76
2021/08/12 08:13:08;;;;;;;8.87;4.33;;;;;;;24.06;55.65;96997.50;2595578;36;20914;-76
2021/08/12 08:15:38;;;;;;;5.73;3.87;;;;;;;24.61;54.16;96995.47;2596494;54;20495;-76
2021/08/12 08:18:08;;;;;;;6.10;4.30;;;;;;;24.67;54.14;96991.22;2595179;36;20438;-76
2021/08/12 08:20:38;;;;;;;4.67;4.07;;;;;;;24.60;54.89;96990.31;2595927;54;20462;-74
2021/08/12 08:23:12;;;;;;;6.20;4.40;;;;;;;25.18;52.65;96985.09;2595424;31;20942;-76
2021/08/12 08:25:42;;;;;;;10.13;5.10;;;;;;;25.14;53.25;96989.97;2594799;39;20763;-75
2021/08/12 08:28:12;;;;;;;7.27;4.30;;;;;;;25.33;52.71;96985.91;2594436;36;20458;-76
2021/08/12 08:30:42;;;;;;;10.37;4.40;;;;;;;25.42;52.27;96986.63;2594572;54;20458;-75
2021/08/12 08:33:12;;;;;;;14.23;5.30;;;;;;;25.32;52.31;96986.09;2594881;36;20815;-75
2021/08/12 08:35:42;;;;;;;9.10;4.90;;;;;;;25.26;52.26;96993.84;2595030;39;20998;-75
2021/08/12 08:38:14;;;;;;;14.60;5.17;;;;;;;24.97;53.46;96989.38;2595111;36;20828;-75
2021/08/12 08:40:44;;;;;;;12.40;5.20;;;;;;;24.59;54.61;96988.66;2599532;54;20555;-75
2021/08/12 08:43:16;;;;;;;12.70;5.00;;;;;;;24.47;54.27;97002.47;2593949;36;20485;-75
2021/08/12 08:45:49;;;;;;;11.03;4.57;;;;;;;25.38;51.26;96991.50;2595630;39;20747;-76
2021/08/12 08:48:19;;;;;;;9.80;5.13;;;;;;;25.29;52.19;96998.03;2594520;36;20933;-75
2021/08/12 08:50:51;;;;;;;7.40;4.60;;;;;;;25.56;52.29;96992.94;2594734;36;20735;-75
2021/08/12 08:53:22;;;;;;;9.73;5.93;;;;;;;26.25;49.62;96997.72;2598330;54;20930;-74
2021/08/12 08:55:54;;;;;;;10.40;5.30;;;;;;;25.67;51.37;96986.25;2596306;31;20430;-75
2021/08/12 08:58:23;;;;;;;8.33;4.97;;;;;;;26.23;50.76;96984.50;2595992;39;20761;-74
2021/08/12 09:00:54;;;;;;;12.43;4.83;;;;;;;25.93;49.94;96993.75;2595638;36;21005;-75
2021/08/12 09:03:24;;;;;;;6.90;4.23;;;;;;;26.28;49.46;96991.13;2595063;54;20426;-75
2021/08/12 09:05:55;;;;;;;7.23;3.77;;;;;;;26.00;49.40;96989.28;2595525;36;20918;-75
2021/08/12 09:08:27;;;;;;;10.20;4.50;;;;;;;25.81;48.71;96988.03;2594589;46;20435;-75
2021/08/12 09:10:57;;;;;;;6.17;4.50;;;;;;;26.11;50.03;96985.22;2595448;36;20418;-75
2021/08/12 09:13:29;;;;;;;9.30;4.50;;;;;;;26.95;48.73;96970.88;2595259;39;20743;-76
2021/08/12 09:15:59;;;;;;;13.20;4.23;;;;;;;26.59;49.04;96985.38;2594131;36;20835;-75
2021/08/12 09:18:31;;;;;;;6.57;4.40;;;;;;;26.45;46.83;96981.75;2595448;39;20890;-76
2021/08/12 09:21:21;;;;;;;7.20;4.47;;;;;;;26.56;47.98;96980.38;2594376;31;20423;-75
2021/08/12 09:24:00;;;;;;;11.33;4.30;;;;;;;27.75;45.61;96981.91;2596507;54;20426;-75
2021/08/12 09:26:30;;;;;;;9.10;4.57;;;;;;;27.57;45.15;96977.94;2595401;36;20742;-75
2021/08/12 09:28:59;;;;;;;8.47;3.93;;;;;;;26.75;46.55;96970.81;2596204;39;20754;-76
2021/08/12 09:31:29;;;;;;;9.63;4.37;;;;;;;26.71;46.83;96975.75;2596849;36;20947;-75
2021/08/12 09:33:59;;;;;;;8.00;4.23;;;;;;;26.86;46.55;96977.47;2595898;54;20418;-75
2021/08/12 09:36:33;;;;;;;14.73;4.30;;;;;;;27.03;45.69;96970.72;2595045;36;20419;-75
2021/08/12 09:39:15;;;;;;;8.23;5.40;;;;;;;27.16;45.72;96978.84;2595028;54;20989;-75
2021/08/12 09:41:49;;;;;;;16.53;5.10;;;;;;;25.81;48.46;96986.16;2594952;36;20454;-74
2021/08/12 09:44:36;;;;;;;7.70;4.77;;;;;;;27.28;46.22;96971.03;2594298;52;20442;-75
2021/08/12 09:47:08;;;;;;;7.83;4.80;;;;;;;28.33;42.90;96967.88;2594720;36;20458;-75
2021/08/12 09:49:40;;;;;;;17.30;4.77;;;;;;;28.35;42.91;96974.69;2596433;54;20426;-76
2021/08/12 09:52:28;;;;;;;8.60;4.90;;;;;;;28.47;44.05;96982.97;2601761;36;21218;-75
2021/08/12 09:55:08;;;;;;;11.80;5.50;;;;;;;28.09;43.89;96983.63;2597025;47;20988;-75
2021/08/12 09:57:47;;;;;;;7.87;4.50;;;;;;;28.11;44.26;96981.56;2595351;36;20449;-74
2021/08/12 10:00:33;;;;;;;8.73;5.10;;;;;;;27.52;45.27;96988.50;2595069;54;20458;-75
2021/08/12 10:03:20;;;;;;;7.63;4.93;;;;;;;28.08;43.90;96981.94;2595541;36;20805;-75
2021/08/12 10:05:51;;;;;;;8.23;5.47;;;;;;;28.00;43.51;96983.00;2597795;31;21073;-74
2021/08/12 10:08:34;;;;;;;8.57;4.90;;;;;;;29.28;40.39;96973.63;2594816;39;20765;-74
2021/08/12 10:11:23;;;;;;;6.57;4.60;;;;;;;29.38;39.94;96976.69;2594333;36;20954;-74
2021/08/12 10:13:56;;;;;;;9.43;5.23;;;;;;;28.42;41.95;96973.84;2596449;54;20422;-75
2021/08/12 10:16:28;;;;;;;14.07;5.60;;;;;;;29.09;41.12;96969.13;2595487;36;20438;-74
2021/08/12 10:18:59;;;;;;;5.83;4.83;;;;;;;30.07;39.49;96971.47;2596070;54;20445;-75
2021/08/12 10:21:30;;;;;;;19.70;5.20;;;;;;;30.08;40.53;96965.03;2595758;36;20425;-74
2021/08/12 10:24:02;;;;;;;12.53;4.53;;;;;;;31.29;37.77;96965.44;2595832;39;20720;-75
2021/08/12 10:26:35;;;;;;;5.90;5.07;;;;;;;29.48;40.01;96964.59;2597249;36;21024;-74
2021/08/12 10:29:11;;;;;;;8.83;4.50;;;;;;;30.23;39.63;96958.47;2594372;54;20989;-74
2021/08/12 10:31:46;;;;;;;9.23;5.33;;;;;;;28.94;41.04;96964.84;2596125;36;20921;-74
2021/08/12 10:34:16;;;;;;;9.33;4.30;;;;;;;30.64;38.24;96959.75;2595884;54;20383;-75
2021/08/12 10:36:48;;;;;;;10.03;6.00;;;;;;;28.76;41.21;96952.03;2595449;36;20453;-75
2021/08/12 10:39:21;;;;;;;6.90;4.90;;;;;;;28.03;43.29;96956.69;2595002;54;20415;-75
2021/08/12 10:41:53;;;;;;;8.90;5.23;;;;;;;30.21;38.95;96955.19;2596466;36;20427;-74
2021/08/12 10:44:24;;;;;;;10.50;5.33;;;;;;;28.46;41.38;96958.94;2595366;54;20431;-74
2021/08/12 10:46:53;;;;;;;10.63;6.10;;;;;;;28.82;41.60;96954.94;2594683;36;20430;-74
2021/08/12 10:49:28;;;;;;;6.60;4.83;;;;;;;28.77;40.81;96950.16;2594790;54;20470;-74
2021/08/12 10:52:02;;;;;;;8.93;4.87;;;;;;;28.64;41.69;96947.50;2594799;36;20958;-73
2021/08/12 10:54:33;;;;;;;10.43;4.80;;;;;;;28.24;41.94;96947.56;2594919;54;20413;-75
2021/08/12 10:57:21;;;;;;;11.97;6.23;;;;;;;28.82;40.78;96952.25;2594634;36;20410;-75
2021/08/12 10:59:52;;;;;;;9.43;4.20;;;;;;;30.51;39.45;96944.50;2594417;54;20375;-74
2021/08/12 11:02:43;;;;;;;13.17;5.17;;;;;;;32.05;35.90;96940.63;2594523;36;20411;-74
2021/08/12 11:05:14;;;;;;;9.33;5.07;;;;;;;32.96;34.17;96937.53;2595242;54;20438;-75
2021/08/12 11:07:55;;;;;;;13.17;5.17;;;;;;;30.25;36.80;96938.28;2594450;36;20450;-74
2021/08/12 11:10:46;;;;;;;14.30;5.10;;;;;;;30.38;36.61;96937.34;2594515;39;21077;-74
2021/08/12 11:13:35;;;;;;;6.90;5.13;;;;;;;30.73;36.75;96934.06;2594870;36;20894;-74
2021/08/12 11:16:05;;;;;;;6.07;4.40;;;;;;;29.98;38.34;96934.19;2595124;36;20434;-74
2021/08/12 11:18:47;;;;;;;13.70;5.90;;;;;;;31.36;34.37;96942.88;2595117;39;20820;-74
2021/08/12 11:21:38;;;;;;;9.70;5.00;;;;;;;30.80;33.68;96942.13;2594976;36;20438;-74
2021/08/12 11:24:09;;;;;;;6.97;5.07;;;;;;;30.82;32.76;96934.63;2594174;54;20443;-74
2021/08/12 11:27:07;;;;;;;8.97;5.87;;;;;;;30.39;34.03;96938.19;2595025;36;20422;-74
2021/08/12 11:29:39;;;;;;;8.53;6.53;;;;;;;30.24;35.37;96935.81;2593196;47;20968;-74
2021/08/12 11:32:14;;;;;;;9.50;5.60;;;;;;;30.00;34.58;96935.59;2594274;36;20419;-75
2021/08/12 11:34:56;;;;;;;7.60;5.57;;;;;;;29.29;34.95;96940.22;2595533;46;20482;-75
2021/08/12 11:37:29;;;;;;;7.67;5.60;;;;;;;29.42;36.50;96930.41;2595698;36;20790;-75
2021/08/12 11:40:01;;;;;;;12.20;5.50;;;;;;;28.20;37.01;96931.81;2595417;39;20724;-74
2021/08/12 11:42:34;;;;;;;7.27;5.63;;;;;;;29.20;35.25;96928.03;2594672;36;20573;-75
2021/08/12 11:45:10;;;;;;;7.23;6.00;;;;;;;30.82;31.80;96929.22;2595045;54;20411;-74
2021/08/12 11:47:42;;;;;;;8.80;5.83;;;;;;;31.12;31.17;96930.06;2595522;36;20453;-74
2021/08/12 11:50:16;;;;;;;8.70;5.23;;;;;;;30.34;32.84;96926.19;2595214;54;20423;-74
2021/08/12 11:52:49;;;;;;;5.83;4.80;;;;;;;31.73;30.74;96928.19;2594776;36;20980;-74